sensor_id;sensor_type;location;lat;lon;timestamp;P1;durP1;ratioP1;P2;durP2;ratioP2
30472;SDS011;17263;48.160;11.452;2023-01-23T00:00:32;44.87;;;28.63;;
30472;SDS011;17263;48.160;11.452;2023-01-23T00:02:59;41.93;;;28.10;;
30472;SDS011;17263;48.160;11.452;2023-01-23T00:05:25;45.43;;;28.93;;
30472;SDS011;17263;48.160;11.452;2023-01-23T00:07:51;40.60;;;27.23;;
30472;SDS011;17263;48.160;11.452;2023-01-23T00:10:17;38.43;;;25.77;;
30472;SDS011;17263;48.160;11.452;2023-01-23T00:12:43;41.73;;;27.00;;
30472;SDS011;17263;48.160;11.452;2023-01-23T00:15:11;36.97;;;24.70;;
30472;SDS011;17263;48.160;11.452;2023-01-23T00:17:38;37.97;;;26.10;;
30472;SDS011;17263;48.160;11.452;2023-01-23T00:20:06;33.10;;;23.40;;
30472;SDS011;17263;48.160;11.452;2023-01-23T00:22:34;42.43;;;27.30;;
30472;SDS011;17263;48.160;11.452;2023-01-23T00:25:00;39.27;;;26.40;;
30472;SDS011;17263;48.160;11.452;2023-01-23T00:27:26;36.23;;;24.63;;
30472;SDS011;17263;48.160;11.452;2023-01-23T00:29:53;38.43;;;24.33;;
30472;SDS011;17263;48.160;11.452;2023-01-23T00:32:19;39.83;;;25.17;;
30472;SDS011;17263;48.160;11.452;2023-01-23T00:34:45;35.93;;;24.10;;
30472;SDS011;17263;48.160;11.452;2023-01-23T00:37:12;36.80;;;23.77;;
30472;SDS011;17263;48.160;11.452;2023-01-23T00:39:38;36.97;;;25.00;;
30472;SDS011;17263;48.160;11.452;2023-01-23T00:42:05;37.50;;;24.20;;
30472;SDS011;17263;48.160;11.452;2023-01-23T00:44:31;37.87;;;23.27;;
30472;SDS011;17263;48.160;11.452;2023-01-23T00:47:00;35.93;;;22.90;;
30472;SDS011;17263;48.160;11.452;2023-01-23T00:49:27;33.87;;;21.93;;
30472;SDS011;17263;48.160;11.452;2023-01-23T00:51:54;40.27;;;23.83;;
30472;SDS011;17263;48.160;11.452;2023-01-23T00:54:21;36.20;;;22.53;;
30472;SDS011;17263;48.160;11.452;2023-01-23T00:56:50;36.17;;;24.27;;
30472;SDS011;17263;48.160;11.452;2023-01-23T00:59:16;33.60;;;21.80;;
30472;SDS011;17263;48.160;11.452;2023-01-23T01:01:43;34.47;;;22.30;;
30472;SDS011;17263;48.160;11.452;2023-01-23T01:04:10;37.63;;;22.50;;
30472;SDS011;17263;48.160;11.452;2023-01-23T01:06:36;39.73;;;24.47;;
30472;SDS011;17263;48.160;11.452;2023-01-23T01:09:02;35.13;;;22.67;;
30472;SDS011;17263;48.160;11.452;2023-01-23T01:11:29;35.93;;;22.60;;
30472;SDS011;17263;48.160;11.452;2023-01-23T01:13:55;38.53;;;23.13;;
30472;SDS011;17263;48.160;11.452;2023-01-23T01:16:21;35.20;;;22.37;;
30472;SDS011;17263;48.160;11.452;2023-01-23T01:18:48;38.10;;;22.97;;
30472;SDS011;17263;48.160;11.452;2023-01-23T01:21:15;39.57;;;23.87;;
30472;SDS011;17263;48.160;11.452;2023-01-23T01:23:41;32.60;;;21.60;;
30472;SDS011;17263;48.160;11.452;2023-01-23T01:26:08;35.13;;;22.50;;
30472;SDS011;17263;48.160;11.452;2023-01-23T01:28:36;36.83;;;23.53;;
30472;SDS011;17263;48.160;11.452;2023-01-23T01:31:08;38.63;;;23.53;;
30472;SDS011;17263;48.160;11.452;2023-01-23T01:33:39;38.30;;;24.50;;
30472;SDS011;17263;48.160;11.452;2023-01-23T01:36:08;37.97;;;22.27;;
30472;SDS011;17263;48.160;11.452;2023-01-23T01:38:35;37.73;;;23.93;;
30472;SDS011;17263;48.160;11.452;2023-01-23T01:41:02;37.93;;;23.30;;
30472;SDS011;17263;48.160;11.452;2023-01-23T01:43:28;36.03;;;23.33;;
30472;SDS011;17263;48.160;11.452;2023-01-23T01:45:58;36.67;;;23.13;;
30472;SDS011;17263;48.160;11.452;2023-01-23T01:59:43;35.73;;;21.93;;
30472;SDS011;17263;48.160;11.452;2023-01-23T02:02:15;36.67;;;23.90;;
30472;SDS011;17263;48.160;11.452;2023-01-23T02:04:57;34.23;;;22.70;;
30472;SDS011;17263;48.160;11.452;2023-01-23T02:07:31;36.17;;;23.97;;
30472;SDS011;17263;48.160;11.452;2023-01-23T02:10:01;36.50;;;22.27;;
30472;SDS011;17263;48.160;11.452;2023-01-23T02:12:29;35.03;;;23.23;;
30472;SDS011;17263;48.160;11.452;2023-01-23T02:14:56;36.83;;;23.33;;
30472;SDS011;17263;48.160;11.452;2023-01-23T02:17:22;35.73;;;23.47;;
30472;SDS011;17263;48.160;11.452;2023-01-23T02:19:55;39.03;;;23.30;;
30472;SDS011;17263;48.160;11.452;2023-01-23T02:28:02;37.27;;;23.13;;
30472;SDS011;17263;48.160;11.452;2023-01-23T02:30:29;37.13;;;23.33;;
30472;SDS011;17263;48.160;11.452;2023-01-23T02:33:06;37.47;;;22.97;;
30472;SDS011;17263;48.160;11.452;2023-01-23T02:35:44;38.03;;;23.77;;
30472;SDS011;17263;48.160;11.452;2023-01-23T02:38:10;34.10;;;22.30;;
30472;SDS011;17263;48.160;11.452;2023-01-23T02:40:42;33.03;;;23.43;;
30472;SDS011;17263;48.160;11.452;2023-01-23T02:43:08;34.40;;;22.17;;
30472;SDS011;17263;48.160;11.452;2023-01-23T02:45:38;35.20;;;22.77;;
30472;SDS011;17263;48.160;11.452;2023-01-23T02:48:04;34.27;;;22.90;;
30472;SDS011;17263;48.160;11.452;2023-01-23T02:50:32;34.47;;;22.40;;
30472;SDS011;17263;48.160;11.452;2023-01-23T02:52:59;37.90;;;24.43;;
30472;SDS011;17263;48.160;11.452;2023-01-23T02:55:25;35.23;;;22.67;;
30472;SDS011;17263;48.160;11.452;2023-01-23T02:57:54;39.07;;;22.97;;
30472;SDS011;17263;48.160;11.452;2023-01-23T03:00:43;36.00;;;23.03;;
30472;SDS011;17263;48.160;11.452;2023-01-23T03:03:10;34.93;;;23.03;;
30472;SDS011;17263;48.160;11.452;2023-01-23T03:05:37;32.87;;;22.97;;
30472;SDS011;17263;48.160;11.452;2023-01-23T03:08:03;35.83;;;23.43;;
30472;SDS011;17263;48.160;11.452;2023-01-23T03:10:30;32.37;;;23.07;;
30472;SDS011;17263;48.160;11.452;2023-01-23T03:12:56;35.47;;;22.73;;
30472;SDS011;17263;48.160;11.452;2023-01-23T03:15:32;36.63;;;23.83;;
30472;SDS011;17263;48.160;11.452;2023-01-23T03:17:59;36.60;;;23.27;;
30472;SDS011;17263;48.160;11.452;2023-01-23T03:20:25;33.97;;;22.70;;
30472;SDS011;17263;48.160;11.452;2023-01-23T03:22:52;33.43;;;22.07;;
30472;SDS011;17263;48.160;11.452;2023-01-23T03:25:19;34.27;;;24.17;;
30472;SDS011;17263;48.160;11.452;2023-01-23T03:27:46;35.63;;;24.20;;
30472;SDS011;17263;48.160;11.452;2023-01-23T03:30:13;36.07;;;22.13;;
30472;SDS011;17263;48.160;11.452;2023-01-23T03:32:41;35.20;;;23.00;;
30472;SDS011;17263;48.160;11.452;2023-01-23T03:35:09;33.33;;;22.47;;
30472;SDS011;17263;48.160;11.452;2023-01-23T03:37:38;30.67;;;22.33;;
30472;SDS011;17263;48.160;11.452;2023-01-23T03:40:05;34.20;;;22.57;;
30472;SDS011;17263;48.160;11.452;2023-01-23T03:42:50;33.57;;;22.20;;
30472;SDS011;17263;48.160;11.452;2023-01-23T03:45:16;36.57;;;22.97;;
30472;SDS011;17263;48.160;11.452;2023-01-23T03:47:42;30.80;;;22.20;;
30472;SDS011;17263;48.160;11.452;2023-01-23T03:50:08;35.67;;;23.43;;
30472;SDS011;17263;48.160;11.452;2023-01-23T03:52:34;34.90;;;22.80;;
30472;SDS011;17263;48.160;11.452;2023-01-23T03:55:02;34.67;;;23.13;;
30472;SDS011;17263;48.160;11.452;2023-01-23T03:57:28;32.73;;;22.87;;
30472;SDS011;17263;48.160;11.452;2023-01-23T03:59:54;34.63;;;22.67;;
30472;SDS011;17263;48.160;11.452;2023-01-23T04:02:20;32.57;;;22.90;;
30472;SDS011;17263;48.160;11.452;2023-01-23T04:04:46;35.20;;;22.53;;
30472;SDS011;17263;48.160;11.452;2023-01-23T04:07:12;33.20;;;22.00;;
30472;SDS011;17263;48.160;11.452;2023-01-23T04:09:38;30.73;;;21.50;;
30472;SDS011;17263;48.160;11.452;2023-01-23T04:12:05;33.20;;;21.60;;
30472;SDS011;17263;48.160;11.452;2023-01-23T04:14:31;34.73;;;23.07;;
30472;SDS011;17263;48.160;11.452;2023-01-23T04:17:05;30.50;;;21.37;;
30472;SDS011;17263;48.160;11.452;2023-01-23T04:19:32;33.60;;;22.43;;
30472;SDS011;17263;48.160;11.452;2023-01-23T04:21:59;33.60;;;22.17;;
30472;SDS011;17263;48.160;11.452;2023-01-23T04:24:26;31.03;;;20.93;;
30472;SDS011;17263;48.160;11.452;2023-01-23T04:26:52;30.33;;;21.10;;
30472;SDS011;17263;48.160;11.452;2023-01-23T04:29:18;35.03;;;23.47;;
30472;SDS011;17263;48.160;11.452;2023-01-23T04:31:44;34.10;;;22.53;;
30472;SDS011;17263;48.160;11.452;2023-01-23T04:34:10;33.57;;;22.40;;
30472;SDS011;17263;48.160;11.452;2023-01-23T04:36:36;33.87;;;22.63;;
30472;SDS011;17263;48.160;11.452;2023-01-23T04:39:02;33.10;;;22.47;;
30472;SDS011;17263;48.160;11.452;2023-01-23T04:41:29;30.90;;;21.30;;
30472;SDS011;17263;48.160;11.452;2023-01-23T04:43:57;33.13;;;21.73;;
30472;SDS011;17263;48.160;11.452;2023-01-23T04:46:43;33.50;;;22.53;;
30472;SDS011;17263;48.160;11.452;2023-01-23T04:49:09;33.23;;;22.20;;
30472;SDS011;17263;48.160;11.452;2023-01-23T04:51:35;32.20;;;22.50;;
30472;SDS011;17263;48.160;11.452;2023-01-23T04:54:02;32.80;;;22.90;;
30472;SDS011;17263;48.160;11.452;2023-01-23T04:56:28;33.63;;;22.83;;
30472;SDS011;17263;48.160;11.452;2023-01-23T04:58:54;33.27;;;21.40;;
30472;SDS011;17263;48.160;11.452;2023-01-23T05:01:20;30.67;;;21.90;;
30472;SDS011;17263;48.160;11.452;2023-01-23T05:03:51;32.13;;;21.67;;
30472;SDS011;17263;48.160;11.452;2023-01-23T05:06:17;31.73;;;21.53;;
30472;SDS011;17263;48.160;11.452;2023-01-23T05:08:44;31.83;;;22.33;;
30472;SDS011;17263;48.160;11.452;2023-01-23T05:11:10;32.27;;;21.97;;
30472;SDS011;17263;48.160;11.452;2023-01-23T05:13:37;28.93;;;20.37;;
30472;SDS011;17263;48.160;11.452;2023-01-23T05:16:03;30.73;;;21.67;;
30472;SDS011;17263;48.160;11.452;2023-01-23T05:18:29;29.87;;;21.23;;
30472;SDS011;17263;48.160;11.452;2023-01-23T05:20:55;31.50;;;21.27;;
30472;SDS011;17263;48.160;11.452;2023-01-23T05:23:21;30.30;;;22.03;;
30472;SDS011;17263;48.160;11.452;2023-01-23T05:25:47;29.20;;;20.40;;
30472;SDS011;17263;48.160;11.452;2023-01-23T05:28:13;30.97;;;20.13;;
30472;SDS011;17263;48.160;11.452;2023-01-23T05:30:39;26.63;;;19.50;;
30472;SDS011;17263;48.160;11.452;2023-01-23T05:33:05;27.33;;;19.10;;
30472;SDS011;17263;48.160;11.452;2023-01-23T05:35:31;25.37;;;18.93;;
30472;SDS011;17263;48.160;11.452;2023-01-23T05:37:57;26.37;;;18.30;;
30472;SDS011;17263;48.160;11.452;2023-01-23T05:40:23;25.70;;;18.27;;
30472;SDS011;17263;48.160;11.452;2023-01-23T05:42:50;26.53;;;18.73;;
30472;SDS011;17263;48.160;11.452;2023-01-23T05:45:16;27.93;;;18.70;;
30472;SDS011;17263;48.160;11.452;2023-01-23T05:47:42;26.13;;;18.50;;
30472;SDS011;17263;48.160;11.452;2023-01-23T05:50:10;26.60;;;18.80;;
30472;SDS011;17263;48.160;11.452;2023-01-23T05:52:39;26.80;;;18.57;;
30472;SDS011;17263;48.160;11.452;2023-01-23T05:55:05;24.90;;;17.70;;
30472;SDS011;17263;48.160;11.452;2023-01-23T05:57:32;24.10;;;17.90;;
30472;SDS011;17263;48.160;11.452;2023-01-23T05:59:58;29.90;;;18.10;;
30472;SDS011;17263;48.160;11.452;2023-01-23T06:02:25;27.20;;;18.87;;
30472;SDS011;17263;48.160;11.452;2023-01-23T06:04:51;27.83;;;19.63;;
30472;SDS011;17263;48.160;11.452;2023-01-23T06:07:18;25.00;;;18.03;;
30472;SDS011;17263;48.160;11.452;2023-01-23T06:09:44;26.93;;;19.57;;
30472;SDS011;17263;48.160;11.452;2023-01-23T06:12:11;27.20;;;19.30;;
30472;SDS011;17263;48.160;11.452;2023-01-23T06:14:37;28.27;;;19.33;;
30472;SDS011;17263;48.160;11.452;2023-01-23T06:17:03;32.13;;;21.70;;
30472;SDS011;17263;48.160;11.452;2023-01-23T06:19:30;31.97;;;22.00;;
30472;SDS011;17263;48.160;11.452;2023-01-23T06:21:56;30.73;;;21.53;;
30472;SDS011;17263;48.160;11.452;2023-01-23T06:24:22;32.33;;;22.60;;
30472;SDS011;17263;48.160;11.452;2023-01-23T06:26:48;32.67;;;22.30;;
30472;SDS011;17263;48.160;11.452;2023-01-23T06:29:14;30.80;;;21.90;;
30472;SDS011;17263;48.160;11.452;2023-01-23T06:31:40;30.57;;;21.93;;
30472;SDS011;17263;48.160;11.452;2023-01-23T06:34:07;30.97;;;21.93;;
30472;SDS011;17263;48.160;11.452;2023-01-23T06:36:33;31.23;;;22.93;;
30472;SDS011;17263;48.160;11.452;2023-01-23T06:38:59;31.47;;;22.43;;
30472;SDS011;17263;48.160;11.452;2023-01-23T06:41:25;32.37;;;22.37;;
30472;SDS011;17263;48.160;11.452;2023-01-23T06:43:51;35.50;;;23.17;;
30472;SDS011;17263;48.160;11.452;2023-01-23T06:46:19;35.13;;;23.20;;
30472;SDS011;17263;48.160;11.452;2023-01-23T06:48:45;33.43;;;23.33;;
30472;SDS011;17263;48.160;11.452;2023-01-23T06:51:11;35.63;;;23.77;;
30472;SDS011;17263;48.160;11.452;2023-01-23T06:53:37;33.90;;;21.83;;
30472;SDS011;17263;48.160;11.452;2023-01-23T06:56:04;31.00;;;22.13;;
30472;SDS011;17263;48.160;11.452;2023-01-23T06:58:32;39.27;;;24.17;;
30472;SDS011;17263;48.160;11.452;2023-01-23T07:00:58;36.50;;;23.83;;
30472;SDS011;17263;48.160;11.452;2023-01-23T07:03:32;36.47;;;23.47;;
30472;SDS011;17263;48.160;11.452;2023-01-23T07:06:00;36.13;;;23.83;;
30472;SDS011;17263;48.160;11.452;2023-01-23T07:08:32;42.60;;;24.03;;
30472;SDS011;17263;48.160;11.452;2023-01-23T07:10:58;40.67;;;25.40;;
30472;SDS011;17263;48.160;11.452;2023-01-23T07:13:25;41.57;;;24.40;;
30472;SDS011;17263;48.160;11.452;2023-01-23T07:15:51;43.23;;;25.83;;
30472;SDS011;17263;48.160;11.452;2023-01-23T07:18:17;45.73;;;26.40;;
30472;SDS011;17263;48.160;11.452;2023-01-23T07:20:43;45.20;;;27.43;;
30472;SDS011;17263;48.160;11.452;2023-01-23T07:23:10;45.17;;;26.97;;
30472;SDS011;17263;48.160;11.452;2023-01-23T07:25:36;52.30;;;29.27;;
30472;SDS011;17263;48.160;11.452;2023-01-23T07:28:02;51.40;;;29.67;;
30472;SDS011;17263;48.160;11.452;2023-01-23T07:30:28;58.83;;;29.60;;
30472;SDS011;17263;48.160;11.452;2023-01-23T07:32:54;56.67;;;29.53;;
30472;SDS011;17263;48.160;11.452;2023-01-23T07:35:20;53.13;;;29.93;;
30472;SDS011;17263;48.160;11.452;2023-01-23T07:37:46;62.60;;;31.80;;
30472;SDS011;17263;48.160;11.452;2023-01-23T07:40:12;60.57;;;30.60;;
30472;SDS011;17263;48.160;11.452;2023-01-23T07:42:38;56.03;;;30.17;;
30472;SDS011;17263;48.160;11.452;2023-01-23T07:45:06;54.30;;;30.97;;
30472;SDS011;17263;48.160;11.452;2023-01-23T07:47:34;57.67;;;30.83;;
30472;SDS011;17263;48.160;11.452;2023-01-23T07:50:01;59.03;;;30.30;;
30472;SDS011;17263;48.160;11.452;2023-01-23T07:52:28;51.93;;;28.93;;
30472;SDS011;17263;48.160;11.452;2023-01-23T07:54:54;53.40;;;30.67;;
30472;SDS011;17263;48.160;11.452;2023-01-23T07:57:20;49.30;;;28.73;;
30472;SDS011;17263;48.160;11.452;2023-01-23T07:59:46;56.60;;;30.17;;
30472;SDS011;17263;48.160;11.452;2023-01-23T08:02:12;52.20;;;29.07;;
30472;SDS011;17263;48.160;11.452;2023-01-23T08:04:38;51.47;;;29.80;;
30472;SDS011;17263;48.160;11.452;2023-01-23T08:07:04;49.57;;;28.47;;
30472;SDS011;17263;48.160;11.452;2023-01-23T08:09:30;49.67;;;27.07;;
30472;SDS011;17263;48.160;11.452;2023-01-23T08:11:56;51.50;;;27.43;;
30472;SDS011;17263;48.160;11.452;2023-01-23T08:14:22;47.00;;;27.83;;
30472;SDS011;17263;48.160;11.452;2023-01-23T08:16:49;45.27;;;26.40;;
30472;SDS011;17263;48.160;11.452;2023-01-23T08:19:16;46.27;;;27.43;;
30472;SDS011;17263;48.160;11.452;2023-01-23T08:21:43;45.97;;;26.47;;
30472;SDS011;17263;48.160;11.452;2023-01-23T08:24:10;43.90;;;26.67;;
30472;SDS011;17263;48.160;11.452;2023-01-23T08:26:37;42.30;;;26.17;;
30472;SDS011;17263;48.160;11.452;2023-01-23T08:29:04;40.50;;;25.47;;
30472;SDS011;17263;48.160;11.452;2023-01-23T08:31:30;40.80;;;25.33;;
30472;SDS011;17263;48.160;11.452;2023-01-23T08:33:56;39.73;;;23.30;;
30472;SDS011;17263;48.160;11.452;2023-01-23T08:36:22;41.63;;;24.80;;
30472;SDS011;17263;48.160;11.452;2023-01-23T08:38:48;39.07;;;23.87;;
30472;SDS011;17263;48.160;11.452;2023-01-23T08:41:14;41.23;;;25.33;;
30472;SDS011;17263;48.160;11.452;2023-01-23T08:43:41;35.67;;;22.03;;
30472;SDS011;17263;48.160;11.452;2023-01-23T08:46:07;37.83;;;23.23;;
30472;SDS011;17263;48.160;11.452;2023-01-23T08:48:33;38.37;;;22.67;;
30472;SDS011;17263;48.160;11.452;2023-01-23T08:51:04;33.13;;;20.97;;
30472;SDS011;17263;48.160;11.452;2023-01-23T08:53:32;32.87;;;22.10;;
30472;SDS011;17263;48.160;11.452;2023-01-23T08:55:59;32.33;;;20.93;;
30472;SDS011;17263;48.160;11.452;2023-01-23T08:58:26;34.80;;;22.37;;
30472;SDS011;17263;48.160;11.452;2023-01-23T09:00:52;33.03;;;20.17;;
30472;SDS011;17263;48.160;11.452;2023-01-23T09:03:18;33.10;;;21.93;;
30472;SDS011;17263;48.160;11.452;2023-01-23T09:05:45;32.47;;;20.90;;
30472;SDS011;17263;48.160;11.452;2023-01-23T09:08:11;35.30;;;20.13;;
30472;SDS011;17263;48.160;11.452;2023-01-23T09:10:37;30.47;;;19.10;;
30472;SDS011;17263;48.160;11.452;2023-01-23T09:13:03;30.60;;;19.33;;
30472;SDS011;17263;48.160;11.452;2023-01-23T09:15:29;31.13;;;20.63;;
30472;SDS011;17263;48.160;11.452;2023-01-23T09:17:55;28.57;;;19.57;;
30472;SDS011;17263;48.160;11.452;2023-01-23T09:20:21;29.60;;;20.13;;
30472;SDS011;17263;48.160;11.452;2023-01-23T09:22:50;30.07;;;19.97;;
30472;SDS011;17263;48.160;11.452;2023-01-23T09:25:16;31.13;;;21.10;;
30472;SDS011;17263;48.160;11.452;2023-01-23T09:27:42;27.93;;;20.17;;
30472;SDS011;17263;48.160;11.452;2023-01-23T09:30:08;29.23;;;19.53;;
30472;SDS011;17263;48.160;11.452;2023-01-23T09:32:35;31.27;;;19.90;;
30472;SDS011;17263;48.160;11.452;2023-01-23T09:35:01;31.50;;;19.97;;
30472;SDS011;17263;48.160;11.452;2023-01-23T09:37:30;30.13;;;20.13;;
30472;SDS011;17263;48.160;11.452;2023-01-23T09:40:17;28.00;;;19.10;;
30472;SDS011;17263;48.160;11.452;2023-01-23T09:42:46;28.13;;;19.20;;
30472;SDS011;17263;48.160;11.452;2023-01-23T09:45:18;32.37;;;20.40;;
30472;SDS011;17263;48.160;11.452;2023-01-23T09:47:54;29.00;;;19.87;;
30472;SDS011;17263;48.160;11.452;2023-01-23T09:50:30;30.07;;;19.67;;
30472;SDS011;17263;48.160;11.452;2023-01-23T09:53:05;29.33;;;19.27;;
30472;SDS011;17263;48.160;11.452;2023-01-23T09:55:41;30.67;;;19.40;;
30472;SDS011;17263;48.160;11.452;2023-01-23T09:58:21;26.80;;;17.90;;
30472;SDS011;17263;48.160;11.452;2023-01-23T10:00:51;26.30;;;18.17;;
30472;SDS011;17263;48.160;11.452;2023-01-23T10:03:17;30.53;;;19.10;;
30472;SDS011;17263;48.160;11.452;2023-01-23T10:05:55;27.17;;;18.37;;
30472;SDS011;17263;48.160;11.452;2023-01-23T10:10:58;27.50;;;18.43;;
30472;SDS011;17263;48.160;11.452;2023-01-23T10:13:32;28.40;;;18.60;;
30472;SDS011;17263;48.160;11.452;2023-01-23T10:16:17;29.10;;;17.80;;
30472;SDS011;17263;48.160;11.452;2023-01-23T10:22:10;27.23;;;18.53;;
30472;SDS011;17263;48.160;11.452;2023-01-23T10:24:57;27.33;;;19.13;;
30472;SDS011;17263;48.160;11.452;2023-01-23T10:29:59;27.10;;;18.73;;
30472;SDS011;17263;48.160;11.452;2023-01-23T10:32:29;27.00;;;18.87;;
30472;SDS011;17263;48.160;11.452;2023-01-23T10:35:06;28.20;;;18.10;;
30472;SDS011;17263;48.160;11.452;2023-01-23T10:37:48;27.67;;;18.90;;
30472;SDS011;17263;48.160;11.452;2023-01-23T10:40:25;27.70;;;18.27;;
30472;SDS011;17263;48.160;11.452;2023-01-23T10:43:14;28.10;;;18.83;;
30472;SDS011;17263;48.160;11.452;2023-01-23T10:45:42;25.37;;;18.07;;
30472;SDS011;17263;48.160;11.452;2023-01-23T10:48:25;28.67;;;19.00;;
30472;SDS011;17263;48.160;11.452;2023-01-23T10:50:58;28.97;;;18.33;;
30472;SDS011;17263;48.160;11.452;2023-01-23T10:53:24;27.37;;;18.60;;
30472;SDS011;17263;48.160;11.452;2023-01-23T10:55:51;27.63;;;18.67;;
30472;SDS011;17263;48.160;11.452;2023-01-23T10:58:37;28.23;;;18.43;;
30472;SDS011;17263;48.160;11.452;2023-01-23T11:01:05;26.00;;;17.97;;
30472;SDS011;17263;48.160;11.452;2023-01-23T11:03:47;28.67;;;18.23;;
30472;SDS011;17263;48.160;11.452;2023-01-23T11:06:17;28.03;;;18.70;;
30472;SDS011;17263;48.160;11.452;2023-01-23T11:08:59;25.73;;;18.83;;
30472;SDS011;17263;48.160;11.452;2023-01-23T11:11:29;24.40;;;17.83;;
30472;SDS011;17263;48.160;11.452;2023-01-23T11:14:07;28.03;;;18.00;;
30472;SDS011;17263;48.160;11.452;2023-01-23T11:16:41;26.67;;;18.37;;
30472;SDS011;17263;48.160;11.452;2023-01-23T11:21:35;26.20;;;18.07;;
30472;SDS011;17263;48.160;11.452;2023-01-23T11:24:07;27.10;;;18.53;;
30472;SDS011;17263;48.160;11.452;2023-01-23T11:26:46;27.33;;;19.03;;
30472;SDS011;17263;48.160;11.452;2023-01-23T11:29:23;28.00;;;18.60;;
30472;SDS011;17263;48.160;11.452;2023-01-23T11:32:01;25.43;;;18.17;;
30472;SDS011;17263;48.160;11.452;2023-01-23T11:34:33;27.30;;;18.97;;
30472;SDS011;17263;48.160;11.452;2023-01-23T11:39:35;26.57;;;18.47;;
30472;SDS011;17263;48.160;11.452;2023-01-23T11:42:08;23.47;;;17.80;;
30472;SDS011;17263;48.160;11.452;2023-01-23T11:44:36;26.73;;;18.43;;
30472;SDS011;17263;48.160;11.452;2023-01-23T11:58:24;24.67;;;17.37;;
30472;SDS011;17263;48.160;11.452;2023-01-23T12:01:04;25.20;;;17.63;;
30472;SDS011;17263;48.160;11.452;2023-01-23T12:09:01;27.30;;;19.00;;
30472;SDS011;17263;48.160;11.452;2023-01-23T12:11:36;25.83;;;18.33;;
30472;SDS011;17263;48.160;11.452;2023-01-23T12:31:09;25.13;;;17.50;;
30472;SDS011;17263;48.160;11.452;2023-01-23T12:36:57;25.77;;;18.60;;
30472;SDS011;17263;48.160;11.452;2023-01-23T12:39:51;25.47;;;17.30;;
30472;SDS011;17263;48.160;11.452;2023-01-23T12:42:23;26.07;;;17.30;;
30472;SDS011;17263;48.160;11.452;2023-01-23T12:47:58;25.40;;;18.00;;
30472;SDS011;17263;48.160;11.452;2023-01-23T12:50:49;24.33;;;17.23;;
30472;SDS011;17263;48.160;11.452;2023-01-23T12:53:19;23.80;;;17.73;;
30472;SDS011;17263;48.160;11.452;2023-01-23T12:58:41;26.10;;;18.40;;
30472;SDS011;17263;48.160;11.452;2023-01-23T13:04:11;26.20;;;17.57;;
30472;SDS011;17263;48.160;11.452;2023-01-23T13:09:26;27.13;;;17.83;;
30472;SDS011;17263;48.160;11.452;2023-01-23T13:12:00;24.50;;;17.03;;
30472;SDS011;17263;48.160;11.452;2023-01-23T13:14:43;25.70;;;17.87;;
30472;SDS011;17263;48.160;11.452;2023-01-23T13:28:41;24.80;;;17.57;;
30472;SDS011;17263;48.160;11.452;2023-01-23T13:31:22;25.70;;;18.23;;
30472;SDS011;17263;48.160;11.452;2023-01-23T13:36:43;26.83;;;18.63;;
30472;SDS011;17263;48.160;11.452;2023-01-23T13:41:49;24.00;;;17.37;;
30472;SDS011;17263;48.160;11.452;2023-01-23T13:46:52;23.83;;;17.47;;
30472;SDS011;17263;48.160;11.452;2023-01-23T13:49:35;21.83;;;16.53;;
30472;SDS011;17263;48.160;11.452;2023-01-23T13:52:16;22.73;;;17.00;;
30472;SDS011;17263;48.160;11.452;2023-01-23T13:55:21;23.53;;;17.40;;
30472;SDS011;17263;48.160;11.452;2023-01-23T13:58:12;25.80;;;16.73;;
30472;SDS011;17263;48.160;11.452;2023-01-23T14:00:42;24.50;;;17.43;;
30472;SDS011;17263;48.160;11.452;2023-01-23T14:03:34;23.27;;;17.23;;
30472;SDS011;17263;48.160;11.452;2023-01-23T14:06:19;25.20;;;18.00;;
30472;SDS011;17263;48.160;11.452;2023-01-23T14:09:24;22.80;;;16.37;;
30472;SDS011;17263;48.160;11.452;2023-01-23T14:11:56;25.30;;;16.50;;
30472;SDS011;17263;48.160;11.452;2023-01-23T14:14:24;23.63;;;17.17;;
30472;SDS011;17263;48.160;11.452;2023-01-23T14:17:10;27.47;;;17.73;;
30472;SDS011;17263;48.160;11.452;2023-01-23T14:19:56;25.27;;;17.33;;
30472;SDS011;17263;48.160;11.452;2023-01-23T14:22:31;25.13;;;17.40;;
30472;SDS011;17263;48.160;11.452;2023-01-23T14:24:57;23.90;;;17.23;;
30472;SDS011;17263;48.160;11.452;2023-01-23T14:27:27;24.60;;;17.67;;
30472;SDS011;17263;48.160;11.452;2023-01-23T14:30:14;25.10;;;17.93;;
30472;SDS011;17263;48.160;11.452;2023-01-23T14:32:42;23.60;;;16.37;;
30472;SDS011;17263;48.160;11.452;2023-01-23T14:35:16;23.43;;;17.47;;
30472;SDS011;17263;48.160;11.452;2023-01-23T14:37:43;24.73;;;17.23;;
30472;SDS011;17263;48.160;11.452;2023-01-23T14:40:17;27.30;;;17.43;;
30472;SDS011;17263;48.160;11.452;2023-01-23T14:42:45;24.03;;;17.37;;
30472;SDS011;17263;48.160;11.452;2023-01-23T14:45:21;21.57;;;16.23;;
30472;SDS011;17263;48.160;11.452;2023-01-23T14:47:47;26.80;;;17.63;;
30472;SDS011;17263;48.160;11.452;2023-01-23T14:50:15;22.93;;;17.03;;
30472;SDS011;17263;48.160;11.452;2023-01-23T14:52:43;24.57;;;17.77;;
30472;SDS011;17263;48.160;11.452;2023-01-23T14:55:22;24.83;;;17.70;;
30472;SDS011;17263;48.160;11.452;2023-01-23T14:57:51;24.73;;;17.63;;
30472;SDS011;17263;48.160;11.452;2023-01-23T15:00:19;23.33;;;16.50;;
30472;SDS011;17263;48.160;11.452;2023-01-23T15:02:47;25.20;;;17.43;;
30472;SDS011;17263;48.160;11.452;2023-01-23T15:05:19;24.17;;;16.47;;
30472;SDS011;17263;48.160;11.452;2023-01-23T15:07:57;25.93;;;17.90;;
30472;SDS011;17263;48.160;11.452;2023-01-23T15:10:47;24.47;;;17.80;;
30472;SDS011;17263;48.160;11.452;2023-01-23T15:15:52;23.27;;;16.13;;
30472;SDS011;17263;48.160;11.452;2023-01-23T15:20:55;24.13;;;16.77;;
30472;SDS011;17263;48.160;11.452;2023-01-23T15:23:24;22.57;;;16.07;;
30472;SDS011;17263;48.160;11.452;2023-01-23T15:26:20;25.47;;;17.17;;
30472;SDS011;17263;48.160;11.452;2023-01-23T15:28:56;24.63;;;17.03;;
30472;SDS011;17263;48.160;11.452;2023-01-23T15:31:33;22.67;;;16.30;;
30472;SDS011;17263;48.160;11.452;2023-01-23T15:36:44;26.73;;;18.23;;
30472;SDS011;17263;48.160;11.452;2023-01-23T15:39:37;23.80;;;17.07;;
30472;SDS011;17263;48.160;11.452;2023-01-23T15:44:41;27.83;;;17.10;;
30472;SDS011;17263;48.160;11.452;2023-01-23T15:47:07;24.83;;;16.87;;
30472;SDS011;17263;48.160;11.452;2023-01-23T15:49:35;25.30;;;17.40;;
30472;SDS011;17263;48.160;11.452;2023-01-23T15:52:14;28.13;;;18.27;;
30472;SDS011;17263;48.160;11.452;2023-01-23T15:54:44;27.50;;;17.70;;
30472;SDS011;17263;48.160;11.452;2023-01-23T15:57:10;27.37;;;18.60;;
30472;SDS011;17263;48.160;11.452;2023-01-23T15:59:37;27.97;;;18.57;;
30472;SDS011;17263;48.160;11.452;2023-01-23T16:02:04;27.77;;;19.03;;
30472;SDS011;17263;48.160;11.452;2023-01-23T16:04:31;32.70;;;20.07;;
30472;SDS011;17263;48.160;11.452;2023-01-23T16:07:00;28.70;;;19.07;;
30472;SDS011;17263;48.160;11.452;2023-01-23T16:09:32;33.60;;;19.43;;
30472;SDS011;17263;48.160;11.452;2023-01-23T16:12:02;31.90;;;19.57;;